sensor_id;sensor_type;location;lat;lon;timestamp;temperature;humidity
10986;DHT22;5546;48.714;8.738;2023-04-22T00:01:48;14.20;97.10
10986;DHT22;5546;48.714;8.738;2023-04-22T00:06:42;14.00;97.50
10986;DHT22;5546;48.714;8.738;2023-04-22T00:09:08;13.80;97.60
10986;DHT22;5546;48.714;8.738;2023-04-22T00:11:34;14.10;97.60
10986;DHT22;5546;48.714;8.738;2023-04-22T00:14:00;14.20;97.60
10986;DHT22;5546;48.714;8.738;2023-04-22T00:18:52;13.80;98.00
10986;DHT22;5546;48.714;8.738;2023-04-22T00:21:17;13.70;98.50
10986;DHT22;5546;48.714;8.738;2023-04-22T00:26:10;14.00;97.80
10986;DHT22;5546;48.714;8.738;2023-04-22T00:28:36;14.10;97.70
10986;DHT22;5546;48.714;8.738;2023-04-22T00:38:51;13.00;99.40
10986;DHT22;5546;48.714;8.738;2023-04-22T00:41:17;13.10;99.10
10986;DHT22;5546;48.714;8.738;2023-04-22T00:43:43;13.10;99.50
10986;DHT22;5546;48.714;8.738;2023-04-22T00:46:09;13.40;98.80
10986;DHT22;5546;48.714;8.738;2023-04-22T00:48:36;13.60;98.10
10986;DHT22;5546;48.714;8.738;2023-04-22T00:51:39;13.50;98.40
10986;DHT22;5546;48.714;8.738;2023-04-22T00:57:04;13.60;97.80
10986;DHT22;5546;48.714;8.738;2023-04-22T00:59:30;13.50;97.80
10986;DHT22;5546;48.714;8.738;2023-04-22T01:01:56;13.60;97.80
10986;DHT22;5546;48.714;8.738;2023-04-22T01:04:22;13.50;98.00
10986;DHT22;5546;48.714;8.738;2023-04-22T01:06:48;13.10;98.10
10986;DHT22;5546;48.714;8.738;2023-04-22T01:09:31;12.90;99.30
10986;DHT22;5546;48.714;8.738;2023-04-22T01:12:09;13.20;98.90
10986;DHT22;5546;48.714;8.738;2023-04-22T01:14:53;13.10;98.70
10986;DHT22;5546;48.714;8.738;2023-04-22T01:17:28;13.20;98.10
10986;DHT22;5546;48.714;8.738;2023-04-22T01:19:57;13.10;97.90
10986;DHT22;5546;48.714;8.738;2023-04-22T01:23:11;13.40;97.60
10986;DHT22;5546;48.714;8.738;2023-04-22T01:25:40;13.40;97.10
10986;DHT22;5546;48.714;8.738;2023-04-22T01:28:22;13.50;96.90
10986;DHT22;5546;48.714;8.738;2023-04-22T01:33:47;13.40;96.90
10986;DHT22;5546;48.714;8.738;2023-04-22T01:36:14;13.20;97.10
10986;DHT22;5546;48.714;8.738;2023-04-22T01:38:40;13.10;97.30
10986;DHT22;5546;48.714;8.738;2023-04-22T01:41:06;13.20;97.40
10986;DHT22;5546;48.714;8.738;2023-04-22T01:43:32;13.20;97.20
10986;DHT22;5546;48.714;8.738;2023-04-22T01:45:59;12.90;97.40
10986;DHT22;5546;48.714;8.738;2023-04-22T01:48:26;12.90;97.50
10986;DHT22;5546;48.714;8.738;2023-04-22T01:50:52;13.10;97.30
10986;DHT22;5546;48.714;8.738;2023-04-22T01:55:43;13.10;97.30
10986;DHT22;5546;48.714;8.738;2023-04-22T01:58:09;12.70;97.50
10986;DHT22;5546;48.714;8.738;2023-04-22T02:07:53;13.00;96.80
10986;DHT22;5546;48.714;8.738;2023-04-22T02:12:45;13.00;97.40
10986;DHT22;5546;48.714;8.738;2023-04-22T02:17:37;12.90;97.10
10986;DHT22;5546;48.714;8.738;2023-04-22T02:20:04;12.70;97.40
10986;DHT22;5546;48.714;8.738;2023-04-22T02:22:31;12.50;97.60
10986;DHT22;5546;48.714;8.738;2023-04-22T02:29:48;12.70;97.20
10986;DHT22;5546;48.714;8.738;2023-04-22T02:37:07;12.50;97.60
10986;DHT22;5546;48.714;8.738;2023-04-22T02:39:33;12.30;97.50
10986;DHT22;5546;48.714;8.738;2023-04-22T02:49:17;12.70;97.20
10986;DHT22;5546;48.714;8.738;2023-04-22T03:16:04;12.50;97.30
10986;DHT22;5546;48.714;8.738;2023-04-22T03:20:55;12.60;97.20
10986;DHT22;5546;48.714;8.738;2023-04-22T03:23:21;12.50;97.10
10986;DHT22;5546;48.714;8.738;2023-04-22T03:42:48;12.40;96.70
10986;DHT22;5546;48.714;8.738;2023-04-22T03:47:39;12.30;96.60
10986;DHT22;5546;48.714;8.738;2023-04-22T03:50:06;12.30;96.60
10986;DHT22;5546;48.714;8.738;2023-04-22T03:52:31;12.30;96.50
10986;DHT22;5546;48.714;8.738;2023-04-22T04:14:24;12.00;96.80
10986;DHT22;5546;48.714;8.738;2023-04-22T04:16:50;11.80;97.00
10986;DHT22;5546;48.714;8.738;2023-04-22T04:19:16;11.60;97.10
10986;DHT22;5546;48.714;8.738;2023-04-22T04:21:41;11.60;97.30
10986;DHT22;5546;48.714;8.738;2023-04-22T04:24:07;11.90;97.10
10986;DHT22;5546;48.714;8.738;2023-04-22T04:28:59;11.90;96.80
10986;DHT22;5546;48.714;8.738;2023-04-22T04:31:26;12.10;96.50
10986;DHT22;5546;48.714;8.738;2023-04-22T04:33:52;12.20;96.30
10986;DHT22;5546;48.714;8.738;2023-04-22T04:38:44;12.00;96.40
10986;DHT22;5546;48.714;8.738;2023-04-22T04:43:35;12.00;96.60
10986;DHT22;5546;48.714;8.738;2023-04-22T04:46:01;12.20;96.30
10986;DHT22;5546;48.714;8.738;2023-04-22T04:48:27;12.10;96.30
10986;DHT22;5546;48.714;8.738;2023-04-22T04:53:21;12.10;96.30
10986;DHT22;5546;48.714;8.738;2023-04-22T04:55:47;12.00;96.40
10986;DHT22;5546;48.714;8.738;2023-04-22T05:00:39;11.60;97.00
10986;DHT22;5546;48.714;8.738;2023-04-22T05:03:05;11.50;97.20
10986;DHT22;5546;48.714;8.738;2023-04-22T05:05:30;11.80;96.80
10986;DHT22;5546;48.714;8.738;2023-04-22T05:07:56;11.60;96.80
10986;DHT22;5546;48.714;8.738;2023-04-22T05:12:47;11.30;96.80
10986;DHT22;5546;48.714;8.738;2023-04-22T05:15:13;11.30;97.40
10986;DHT22;5546;48.714;8.738;2023-04-22T05:17:39;11.50;97.40
10986;DHT22;5546;48.714;8.738;2023-04-22T05:20:05;11.60;97.20
10986;DHT22;5546;48.714;8.738;2023-04-22T05:22:31;11.90;97.00
10986;DHT22;5546;48.714;8.738;2023-04-22T05:29:48;12.00;96.90
10986;DHT22;5546;48.714;8.738;2023-04-22T05:34:40;12.30;96.90
10986;DHT22;5546;48.714;8.738;2023-04-22T05:41:58;13.30;95.60
10986;DHT22;5546;48.714;8.738;2023-04-22T05:44:24;13.10;95.20
10986;DHT22;5546;48.714;8.738;2023-04-22T05:46:49;13.00;95.60
10986;DHT22;5546;48.714;8.738;2023-04-22T05:51:41;12.80;95.40
10986;DHT22;5546;48.714;8.738;2023-04-22T06:03:50;15.40;93.10
10986;DHT22;5546;48.714;8.738;2023-04-22T06:06:16;15.50;93.40
10986;DHT22;5546;48.714;8.738;2023-04-22T06:08:42;16.60;91.50
10986;DHT22;5546;48.714;8.738;2023-04-22T06:11:07;17.60;89.30
10986;DHT22;5546;48.714;8.738;2023-04-22T06:13:33;17.30;86.30
10986;DHT22;5546;48.714;8.738;2023-04-22T06:15:59;16.90;87.20
10986;DHT22;5546;48.714;8.738;2023-04-22T06:18:25;17.00;87.10
10986;DHT22;5546;48.714;8.738;2023-04-22T06:20:51;17.10;88.00
10986;DHT22;5546;48.714;8.738;2023-04-22T06:23:16;17.00;87.60
10986;DHT22;5546;48.714;8.738;2023-04-22T06:25:42;17.00;88.20
10986;DHT22;5546;48.714;8.738;2023-04-22T06:28:08;16.60;88.70
10986;DHT22;5546;48.714;8.738;2023-04-22T06:30:33;16.20;89.90
10986;DHT22;5546;48.714;8.738;2023-04-22T06:32:59;15.80;90.60
10986;DHT22;5546;48.714;8.738;2023-04-22T06:35:25;15.20;91.50
10986;DHT22;5546;48.714;8.738;2023-04-22T06:40:17;13.60;93.90
10986;DHT22;5546;48.714;8.738;2023-04-22T06:42:42;13.40;94.60
10986;DHT22;5546;48.714;8.738;2023-04-22T06:45:08;13.50;94.70
10986;DHT22;5546;48.714;8.738;2023-04-22T06:47:39;13.40;95.00
10986;DHT22;5546;48.714;8.738;2023-04-22T06:50:07;13.50;95.00
10986;DHT22;5546;48.714;8.738;2023-04-22T06:52:33;14.10;94.70
10986;DHT22;5546;48.714;8.738;2023-04-22T06:54:59;14.70;93.50
10986;DHT22;5546;48.714;8.738;2023-04-22T07:02:18;14.40;93.20
10986;DHT22;5546;48.714;8.738;2023-04-22T07:04:44;13.90;93.70
10986;DHT22;5546;48.714;8.738;2023-04-22T07:07:10;13.90;94.30
10986;DHT22;5546;48.714;8.738;2023-04-22T07:09:35;14.20;93.80
10986;DHT22;5546;48.714;8.738;2023-04-22T07:12:01;14.90;93.20
10986;DHT22;5546;48.714;8.738;2023-04-22T07:14:27;15.20;92.40
10986;DHT22;5546;48.714;8.738;2023-04-22T07:16:52;15.10;92.70
10986;DHT22;5546;48.714;8.738;2023-04-22T07:19:18;15.20;92.70
10986;DHT22;5546;48.714;8.738;2023-04-22T07:21:43;15.00;92.90
10986;DHT22;5546;48.714;8.738;2023-04-22T07:24:09;14.80;93.50
10986;DHT22;5546;48.714;8.738;2023-04-22T07:26:39;14.70;93.80
10986;DHT22;5546;48.714;8.738;2023-04-22T07:29:05;14.70;94.20
10986;DHT22;5546;48.714;8.738;2023-04-22T07:31:32;15.10;93.90
10986;DHT22;5546;48.714;8.738;2023-04-22T07:33:57;15.80;92.90
10986;DHT22;5546;48.714;8.738;2023-04-22T07:38:49;15.70;92.20
10986;DHT22;5546;48.714;8.738;2023-04-22T07:41:14;15.90;92.50
10986;DHT22;5546;48.714;8.738;2023-04-22T07:43:40;15.60;92.60
10986;DHT22;5546;48.714;8.738;2023-04-22T07:46:05;15.50;92.80
10986;DHT22;5546;48.714;8.738;2023-04-22T07:48:31;15.90;92.70
10986;DHT22;5546;48.714;8.738;2023-04-22T07:50:57;16.00;92.70
10986;DHT22;5546;48.714;8.738;2023-04-22T07:53:22;16.50;91.40
10986;DHT22;5546;48.714;8.738;2023-04-22T07:55:48;17.00;91.00
10986;DHT22;5546;48.714;8.738;2023-04-22T07:58:14;17.00;90.80
10986;DHT22;5546;48.714;8.738;2023-04-22T08:00:40;17.00;91.10
10986;DHT22;5546;48.714;8.738;2023-04-22T08:03:05;17.50;90.70
10986;DHT22;5546;48.714;8.738;2023-04-22T08:05:31;18.20;90.10
10986;DHT22;5546;48.714;8.738;2023-04-22T08:07:56;18.40;88.90
10986;DHT22;5546;48.714;8.738;2023-04-22T08:10:22;19.20;86.30
10986;DHT22;5546;48.714;8.738;2023-04-22T08:12:47;19.10;84.70
10986;DHT22;5546;48.714;8.738;2023-04-22T08:15:13;18.90;85.50
10986;DHT22;5546;48.714;8.738;2023-04-22T08:17:39;18.40;86.70
10986;DHT22;5546;48.714;8.738;2023-04-22T08:20:05;18.90;86.00
10986;DHT22;5546;48.714;8.738;2023-04-22T08:22:31;19.10;84.70
10986;DHT22;5546;48.714;8.738;2023-04-22T08:24:58;19.90;82.90
10986;DHT22;5546;48.714;8.738;2023-04-22T08:27:25;21.10;79.50
10986;DHT22;5546;48.714;8.738;2023-04-22T08:29:50;21.80;77.90
10986;DHT22;5546;48.714;8.738;2023-04-22T08:32:16;22.50;74.80
10986;DHT22;5546;48.714;8.738;2023-04-22T08:34:44;23.50;72.50
10986;DHT22;5546;48.714;8.738;2023-04-22T08:37:10;23.40;70.80
10986;DHT22;5546;48.714;8.738;2023-04-22T08:39:35;23.80;70.20
10986;DHT22;5546;48.714;8.738;2023-04-22T08:42:01;24.10;71.00
10986;DHT22;5546;48.714;8.738;2023-04-22T08:44:27;24.90;67.30
10986;DHT22;5546;48.714;8.738;2023-04-22T08:46:54;24.40;68.60
10986;DHT22;5546;48.714;8.738;2023-04-22T08:49:22;25.30;66.90
10986;DHT22;5546;48.714;8.738;2023-04-22T08:51:48;26.50;64.20
10986;DHT22;5546;48.714;8.738;2023-04-22T08:54:14;26.40;63.50
10986;DHT22;5546;48.714;8.738;2023-04-22T08:56:43;25.20;63.50
10986;DHT22;5546;48.714;8.738;2023-04-22T08:59:10;24.70;65.60
10986;DHT22;5546;48.714;8.738;2023-04-22T09:01:37;23.60;66.60
10986;DHT22;5546;48.714;8.738;2023-04-22T09:04:04;22.60;66.70
10986;DHT22;5546;48.714;8.738;2023-04-22T09:06:31;22.70;66.60
10986;DHT22;5546;48.714;8.738;2023-04-22T09:08:57;23.10;65.80
10986;DHT22;5546;48.714;8.738;2023-04-22T09:11:29;23.60;64.40
10986;DHT22;5546;48.714;8.738;2023-04-22T09:13:55;23.80;65.00
10986;DHT22;5546;48.714;8.738;2023-04-22T09:16:20;23.60;62.20
10986;DHT22;5546;48.714;8.738;2023-04-22T09:18:46;23.60;62.70
10986;DHT22;5546;48.714;8.738;2023-04-22T09:21:11;24.60;61.40
10986;DHT22;5546;48.714;8.738;2023-04-22T09:23:51;26.60;57.20
10986;DHT22;5546;48.714;8.738;2023-04-22T09:26:25;26.90;56.00
10986;DHT22;5546;48.714;8.738;2023-04-22T09:28:55;27.20;53.90
10986;DHT22;5546;48.714;8.738;2023-04-22T09:31:23;28.30;53.50
10986;DHT22;5546;48.714;8.738;2023-04-22T09:33:54;28.60;53.00
10986;DHT22;5546;48.714;8.738;2023-04-22T09:36:21;28.30;51.10
10986;DHT22;5546;48.714;8.738;2023-04-22T09:39:06;27.90;52.40
10986;DHT22;5546;48.714;8.738;2023-04-22T09:41:34;29.30;50.90
10986;DHT22;5546;48.714;8.738;2023-04-22T09:44:01;31.20;47.40
10986;DHT22;5546;48.714;8.738;2023-04-22T09:46:28;31.60;46.50
10986;DHT22;5546;48.714;8.738;2023-04-22T09:48:55;32.30;45.80
10986;DHT22;5546;48.714;8.738;2023-04-22T09:51:21;32.00;46.00
10986;DHT22;5546;48.714;8.738;2023-04-22T09:54:04;33.10;44.90
10986;DHT22;5546;48.714;8.738;2023-04-22T09:56:44;32.80;44.20
10986;DHT22;5546;48.714;8.738;2023-04-22T09:59:12;31.20;45.70
10986;DHT22;5546;48.714;8.738;2023-04-22T10:01:39;31.50;45.10
10986;DHT22;5546;48.714;8.738;2023-04-22T10:04:06;31.60;44.20
10986;DHT22;5546;48.714;8.738;2023-04-22T10:06:34;32.70;43.60
10986;DHT22;5546;48.714;8.738;2023-04-22T10:09:00;32.30;41.10
10986;DHT22;5546;48.714;8.738;2023-04-22T10:11:26;31.70;42.00
10986;DHT22;5546;48.714;8.738;2023-04-22T10:13:52;31.80;41.70
10986;DHT22;5546;48.714;8.738;2023-04-22T10:16:19;32.90;40.90
10986;DHT22;5546;48.714;8.738;2023-04-22T10:18:46;33.90;40.20
10986;DHT22;5546;48.714;8.738;2023-04-22T10:21:13;33.80;39.10
10986;DHT22;5546;48.714;8.738;2023-04-22T10:23:45;32.80;39.10
10986;DHT22;5546;48.714;8.738;2023-04-22T10:26:11;32.80;39.90
10986;DHT22;5546;48.714;8.738;2023-04-22T10:28:42;33.20;39.70
10986;DHT22;5546;48.714;8.738;2023-04-22T10:31:19;34.40;38.00
10986;DHT22;5546;48.714;8.738;2023-04-22T10:33:46;34.30;36.30
10986;DHT22;5546;48.714;8.738;2023-04-22T10:36:16;32.30;37.40
10986;DHT22;5546;48.714;8.738;2023-04-22T10:41:15;30.60;39.40
10986;DHT22;5546;48.714;8.738;2023-04-22T10:43:45;31.80;37.40
10986;DHT22;5546;48.714;8.738;2023-04-22T10:48:56;33.90;35.50
10986;DHT22;5546;48.714;8.738;2023-04-22T10:54:03;33.90;36.20
10986;DHT22;5546;48.714;8.738;2023-04-22T10:56:28;32.40;36.40
10986;DHT22;5546;48.714;8.738;2023-04-22T10:59:14;31.00;38.60
10986;DHT22;5546;48.714;8.738;2023-04-22T11:01:40;31.30;37.10
10986;DHT22;5546;48.714;8.738;2023-04-22T11:04:22;31.70;37.30
10986;DHT22;5546;48.714;8.738;2023-04-22T11:07:13;33.60;36.40
10986;DHT22;5546;48.714;8.738;2023-04-22T11:09:44;32.20;35.90
10986;DHT22;5546;48.714;8.738;2023-04-22T11:15:24;29.80;38.80
10986;DHT22;5546;48.714;8.738;2023-04-22T11:17:51;28.30;39.40
10986;DHT22;5546;48.714;8.738;2023-04-22T11:23:02;25.60;41.80
10986;DHT22;5546;48.714;8.738;2023-04-22T11:25:28;26.60;42.20
10986;DHT22;5546;48.714;8.738;2023-04-22T11:27:55;28.30;41.00
10986;DHT22;5546;48.714;8.738;2023-04-22T11:30:22;28.50;41.40
10986;DHT22;5546;48.714;8.738;2023-04-22T11:32:53;29.70;40.20
10986;DHT22;5546;48.714;8.738;2023-04-22T11:35:33;31.30;37.60
10986;DHT22;5546;48.714;8.738;2023-04-22T11:38:02;32.40;36.10
10986;DHT22;5546;48.714;8.738;2023-04-22T11:41:03;32.90;35.30
10986;DHT22;5546;48.714;8.738;2023-04-22T11:43:22;33.40;34.60
10986;DHT22;5546;48.714;8.738;2023-04-22T11:45:48;33.30;35.10
10986;DHT22;5546;48.714;8.738;2023-04-22T11:48:14;33.90;34.80
10986;DHT22;5546;48.714;8.738;2023-04-22T11:50:41;33.60;33.30
10986;DHT22;5546;48.714;8.738;2023-04-22T11:53:15;33.00;34.30
10986;DHT22;5546;48.714;8.738;2023-04-22T11:55:42;32.80;33.20
10986;DHT22;5546;48.714;8.738;2023-04-22T11:58:11;30.70;35.20
10986;DHT22;5546;48.714;8.738;2023-04-22T12:00:44;28.50;37.90
10986;DHT22;5546;48.714;8.738;2023-04-22T12:05:50;27.20;39.60
10986;DHT22;5546;48.714;8.738;2023-04-22T12:08:18;27.40;40.10
10986;DHT22;5546;48.714;8.738;2023-04-22T12:10:46;27.70;40.60
10986;DHT22;5546;48.714;8.738;2023-04-22T12:13:25;27.80;40.60
10986;DHT22;5546;48.714;8.738;2023-04-22T12:16:02;28.10;39.60
10986;DHT22;5546;48.714;8.738;2023-04-22T12:18:34;28.00;40.40
10986;DHT22;5546;48.714;8.738;2023-04-22T12:21:08;27.80;39.80
10986;DHT22;5546;48.714;8.738;2023-04-22T12:23:44;26.90;41.30
10986;DHT22;5546;48.714;8.738;2023-04-22T12:26:14;26.80;41.70
10986;DHT22;5546;48.714;8.738;2023-04-22T12:28:40;26.80;41.70
10986;DHT22;5546;48.714;8.738;2023-04-22T12:31:07;26.80;42.20
10986;DHT22;5546;48.714;8.738;2023-04-22T12:33:33;26.90;42.30
10986;DHT22;5546;48.714;8.738;2023-04-22T12:35:59;26.90;41.60
10986;DHT22;5546;48.714;8.738;2023-04-22T12:40:51;26.60;42.60
10986;DHT22;5546;48.714;8.738;2023-04-22T12:43:17;26.00;43.40
10986;DHT22;5546;48.714;8.738;2023-04-22T12:45:43;25.80;42.70
10986;DHT22;5546;48.714;8.738;2023-04-22T12:50:35;26.00;43.70
10986;DHT22;5546;48.714;8.738;2023-04-22T12:53:01;27.30;41.30
10986;DHT22;5546;48.714;8.738;2023-04-22T12:55:28;28.40;39.40
10986;DHT22;5546;48.714;8.738;2023-04-22T12:57:53;28.50;39.80
10986;DHT22;5546;48.714;8.738;2023-04-22T13:00:19;27.60;40.80
10986;DHT22;5546;48.714;8.738;2023-04-22T13:02:46;27.30;41.10
10986;DHT22;5546;48.714;8.738;2023-04-22T13:05:12;27.70;41.20
10986;DHT22;5546;48.714;8.738;2023-04-22T13:07:39;27.50;40.80
10986;DHT22;5546;48.714;8.738;2023-04-22T13:10:06;27.40;41.30
10986;DHT22;5546;48.714;8.738;2023-04-22T13:12:32;26.90;41.50
10986;DHT22;5546;48.714;8.738;2023-04-22T13:14:58;27.00;42.10
10986;DHT22;5546;48.714;8.738;2023-04-22T13:17:24;27.20;41.90
10986;DHT22;5546;48.714;8.738;2023-04-22T13:19:50;27.10;42.40
10986;DHT22;5546;48.714;8.738;2023-04-22T13:22:16;27.00;42.60
10986;DHT22;5546;48.714;8.738;2023-04-22T13:24:42;26.60;42.60
10986;DHT22;5546;48.714;8.738;2023-04-22T13:27:08;25.90;43.70
10986;DHT22;5546;48.714;8.738;2023-04-22T13:29:34;25.90;44.90
10986;DHT22;5546;48.714;8.738;2023-04-22T13:32:00;25.70;44.40
10986;DHT22;5546;48.714;8.738;2023-04-22T13:34:25;25.20;44.60
10986;DHT22;5546;48.714;8.738;2023-04-22T13:36:51;25.40;44.60
10986;DHT22;5546;48.714;8.738;2023-04-22T13:41:44;24.70;46.00
10986;DHT22;5546;48.714;8.738;2023-04-22T13:44:10;24.60;46.50
10986;DHT22;5546;48.714;8.738;2023-04-22T13:49:05;25.00;46.30
10986;DHT22;5546;48.714;8.738;2023-04-22T13:51:31;24.70;45.80
10986;DHT22;5546;48.714;8.738;2023-04-22T13:54:03;24.50;47.00
10986;DHT22;5546;48.714;8.738;2023-04-22T13:56:29;24.20;47.30
10986;DHT22;5546;48.714;8.738;2023-04-22T13:58:55;24.30;48.40
10986;DHT22;5546;48.714;8.738;2023-04-22T14:01:21;24.30;49.30
10986;DHT22;5546;48.714;8.738;2023-04-22T14:03:48;23.50;50.50
10986;DHT22;5546;48.714;8.738;2023-04-22T14:06:14;23.20;50.90
10986;DHT22;5546;48.714;8.738;2023-04-22T14:08:40;23.40;50.20
10986;DHT22;5546;48.714;8.738;2023-04-22T14:11:07;23.60;49.80
10986;DHT22;5546;48.714;8.738;2023-04-22T14:13:33;24.00;50.30
10986;DHT22;5546;48.714;8.738;2023-04-22T14:16:08;24.10;49.00
10986;DHT22;5546;48.714;8.738;2023-04-22T14:18:36;24.10;49.20
10986;DHT22;5546;48.714;8.738;2023-04-22T14:21:04;23.90;48.40
10986;DHT22;5546;48.714;8.738;2023-04-22T14:23:42;23.80;48.80
10986;DHT22;5546;48.714;8.738;2023-04-22T14:26:09;23.80;48.70
10986;DHT22;5546;48.714;8.738;2023-04-22T14:28:36;23.90;48.90
10986;DHT22;5546;48.714;8.738;2023-04-22T14:31:02;23.80;48.90
10986;DHT22;5546;48.714;8.738;2023-04-22T14:33:28;23.70;49.50
10986;DHT22;5546;48.714;8.738;2023-04-22T14:35:56;23.80;49.70
10986;DHT22;5546;48.714;8.738;2023-04-22T14:38:25;23.40;49.60
10986;DHT22;5546;48.714;8.738;2023-04-22T14:40:51;23.50;49.60
10986;DHT22;5546;48.714;8.738;2023-04-22T14:43:18;23.50;50.10
10986;DHT22;5546;48.714;8.738;2023-04-22T14:45:44;23.70;51.60
10986;DHT22;5546;48.714;8.738;2023-04-22T14:48:11;24.00;49.80
10986;DHT22;5546;48.714;8.738;2023-04-22T14:50:36;24.00;50.10
10986;DHT22;5546;48.714;8.738;2023-04-22T14:53:02;24.30;53.40
10986;DHT22;5546;48.714;8.738;2023-04-22T14:55:28;24.40;53.00
10986;DHT22;5546;48.714;8.738;2023-04-22T14:57:55;24.60;52.00
10986;DHT22;5546;48.714;8.738;2023-04-22T15:00:21;24.70;55.40
10986;DHT22;5546;48.714;8.738;2023-04-22T15:02:47;24.70;56.30
10986;DHT22;5546;48.714;8.738;2023-04-22T15:05:13;24.60;55.40
10986;DHT22;5546;48.714;8.738;2023-04-22T15:07:38;24.70;54.60
10986;DHT22;5546;48.714;8.738;2023-04-22T15:10:04;24.30;54.90
10986;DHT22;5546;48.714;8.738;2023-04-22T15:12:30;24.30;57.50
10986;DHT22;5546;48.714;8.738;2023-04-22T15:14:55;24.40;56.50
10986;DHT22;5546;48.714;8.738;2023-04-22T15:17:21;24.30;58.00
10986;DHT22;5546;48.714;8.738;2023-04-22T15:19:47;24.40;57.50
10986;DHT22;5546;48.714;8.738;2023-04-22T15:22:14;24.40;58.90
10986;DHT22;5546;48.714;8.738;2023-04-22T15:24:39;24.30;59.80
10986;DHT22;5546;48.714;8.738;2023-04-22T15:27:06;24.50;58.00
10986;DHT22;5546;48.714;8.738;2023-04-22T15:29:31;24.50;59.30
10986;DHT22;5546;48.714;8.738;2023-04-22T15:31:57;24.90;56.20
10986;DHT22;5546;48.714;8.738;2023-04-22T15:34:23;24.60;58.30
10986;DHT22;5546;48.714;8.738;2023-04-22T15:36:48;24.60;60.90
10986;DHT22;5546;48.714;8.738;2023-04-22T15:39:14;24.70;60.60
10986;DHT22;5546;48.714;8.738;2023-04-22T15:41:40;24.70;58.00
10986;DHT22;5546;48.714;8.738;2023-04-22T15:44:07;24.50;60.80
10986;DHT22;5546;48.714;8.738;2023-04-22T15:46:34;24.70;58.20
10986;DHT22;5546;48.714;8.738;2023-04-22T15:49:00;24.90;54.90
10986;DHT22;5546;48.714;8.738;2023-04-22T15:51:26;24.80;58.50
10986;DHT22;5546;48.714;8.738;2023-04-22T15:53:53;24.50;54.40
10986;DHT22;5546;48.714;8.738;2023-04-22T15:56:19;24.40;51.40
10986;DHT22;5546;48.714;8.738;2023-04-22T15:58:45;24.40;51.90
10986;DHT22;5546;48.714;8.738;2023-04-22T16:01:10;24.40;51.20
10986;DHT22;5546;48.714;8.738;2023-04-22T16:03:36;24.30;51.10
10986;DHT22;5546;48.714;8.738;2023-04-22T16:06:02;24.20;50.80
10986;DHT22;5546;48.714;8.738;2023-04-22T16:08:27;24.20;50.90
10986;DHT22;5546;48.714;8.738;2023-04-22T16:10:53;24.20;51.00
10986;DHT22;5546;48.714;8.738;2023-04-22T16:13:18;24.50;51.10
10986;DHT22;5546;48.714;8.738;2023-04-22T16:15:44;24.60;51.30
10986;DHT22;5546;48.714;8.738;2023-04-22T16:18:11;24.80;54.70
10986;DHT22;5546;48.714;8.738;2023-04-22T16:20:37;24.40;50.20
10986;DHT22;5546;48.714;8.738;2023-04-22T16:23:03;24.20;53.40
10986;DHT22;5546;48.714;8.738;2023-04-22T16:25:28;24.30;51.00
10986;DHT22;5546;48.714;8.738;2023-04-22T16:27:54;24.20;56.20
10986;DHT22;5546;48.714;8.738;2023-04-22T16:30:23;24.20;56.30
10986;DHT22;5546;48.714;8.738;2023-04-22T16:32:52;24.20;54.30
10986;DHT22;5546;48.714;8.738;2023-04-22T16:35:18;24.20;56.10
10986;DHT22;5546;48.714;8.738;2023-04-22T16:37:45;23.90;54.60
10986;DHT22;5546;48.714;8.738;2023-04-22T16:40:18;23.90;51.60
10986;DHT22;5546;48.714;8.738;2023-04-22T16:42:46;23.80;55.90
10986;DHT22;5546;48.714;8.738;2023-04-22T16:45:12;23.50;55.40
10986;DHT22;5546;48.714;8.738;2023-04-22T16:47:58;24.10;55.20
10986;DHT22;5546;48.714;8.738;2023-04-22T16:50:24;24.20;55.30
10986;DHT22;5546;48.714;8.738;2023-04-22T16:52:49;24.40;58.10
10986;DHT22;5546;48.714;8.738;2023-04-22T16:55:36;23.90;57.60
10986;DHT22;5546;48.714;8.738;2023-04-22T16:58:01;23.70;59.20
10986;DHT22;5546;48.714;8.738;2023-04-22T17:00:40;23.10;60.00
10986;DHT22;5546;48.714;8.738;2023-04-22T17:03:06;23.20;60.20
10986;DHT22;5546;48.714;8.738;2023-04-22T17:05:41;23.10;59.50
10986;DHT22;5546;48.714;8.738;2023-04-22T17:08:07;23.20;56.50
10986;DHT22;5546;48.714;8.738;2023-04-22T17:13:20;23.10;58.60
10986;DHT22;5546;48.714;8.738;2023-04-22T17:15:46;22.70;61.50
10986;DHT22;5546;48.714;8.738;2023-04-22T17:18:11;22.30;59.10
10986;DHT22;5546;48.714;8.738;2023-04-22T17:20:37;22.20;57.90
10986;DHT22;5546;48.714;8.738;2023-04-22T17:23:02;22.00;58.30
10986;DHT22;5546;48.714;8.738;2023-04-22T17:25:29;21.50;61.30
10986;DHT22;5546;48.714;8.738;2023-04-22T17:27:55;20.90;61.30
10986;DHT22;5546;48.714;8.738;2023-04-22T17:30:21;20.80;64.80
10986;DHT22;5546;48.714;8.738;2023-04-22T17:35:13;20.60;65.70
10986;DHT22;5546;48.714;8.738;2023-04-22T17:37:38;20.20;68.30
10986;DHT22;5546;48.714;8.738;2023-04-22T17:40:05;20.00;67.40
10986;DHT22;5546;48.714;8.738;2023-04-22T17:42:36;20.20;75.00
10986;DHT22;5546;48.714;8.738;2023-04-22T17:45:02;20.50;78.40
10986;DHT22;5546;48.714;8.738;2023-04-22T17:47:27;20.30;77.90
10986;DHT22;5546;48.714;8.738;2023-04-22T17:49:54;19.90;80.80
10986;DHT22;5546;48.714;8.738;2023-04-22T17:52:20;19.70;78.70
10986;DHT22;5546;48.714;8.738;2023-04-22T17:54:46;19.70;79.90
10986;DHT22;5546;48.714;8.738;2023-04-22T17:57:11;19.40;84.60
10986;DHT22;5546;48.714;8.738;2023-04-22T17:59:37;19.30;80.50
10986;DHT22;5546;48.714;8.738;2023-04-22T18:04:29;19.00;87.90
10986;DHT22;5546;48.714;8.738;2023-04-22T18:06:56;19.00;89.20
10986;DHT22;5546;48.714;8.738;2023-04-22T18:11:48;18.60;89.70
10986;DHT22;5546;48.714;8.738;2023-04-22T18:14:13;18.50;90.20
10986;DHT22;5546;48.714;8.738;2023-04-22T18:16:39;18.40;91.00
10986;DHT22;5546;48.714;8.738;2023-04-22T18:21:32;18.60;91.10
10986;DHT22;5546;48.714;8.738;2023-04-22T18:26:23;18.40;90.90
10986;DHT22;5546;48.714;8.738;2023-04-22T18:28:49;18.10;91.20
10986;DHT22;5546;48.714;8.738;2023-04-22T18:50:44;17.30;93.70
10986;DHT22;5546;48.714;8.738;2023-04-22T18:53:10;17.30;94.10
10986;DHT22;5546;48.714;8.738;2023-04-22T18:55:35;17.00;94.20
10986;DHT22;5546;48.714;8.738;2023-04-22T18:58:01;16.90;95.30
10986;DHT22;5546;48.714;8.738;2023-04-22T19:05:19;16.50;95.30
10986;DHT22;5546;48.714;8.738;2023-04-22T19:07:45;16.50;95.00
10986;DHT22;5546;48.714;8.738;2023-04-22T19:15:03;16.60;95.20
10986;DHT22;5546;48.714;8.738;2023-04-22T19:29:42;16.70;95.10
10986;DHT22;5546;48.714;8.738;2023-04-22T19:32:08;16.90;94.70
10986;DHT22;5546;48.714;8.738;2023-04-22T19:34:36;17.00;94.20
10986;DHT22;5546;48.714;8.738;2023-04-22T19:39:29;16.80;95.20
10986;DHT22;5546;48.714;8.738;2023-04-22T19:41:55;16.60;95.40
10986;DHT22;5546;48.714;8.738;2023-04-22T19:51:39;16.70;95.70
10986;DHT22;5546;48.714;8.738;2023-04-22T19:54:06;16.70;95.20
10986;DHT22;5546;48.714;8.738;2023-04-22T19:56:33;16.60;95.40
10986;DHT22;5546;48.714;8.738;2023-04-22T20:03:51;17.00;94.30
10986;DHT22;5546;48.714;8.738;2023-04-22T20:06:18;17.00;94.50
10986;DHT22;5546;48.714;8.738;2023-04-22T20:08:50;16.70;94.60
10986;DHT22;5546;48.714;8.738;2023-04-22T20:11:21;16.70;94.30